Time;durP1;ratioP1;P1;durP2;ratioP2;P2;SDS_P1;SDS_P2;PMS_P1;PMS_P2;Temp;Humidity;BMP_temperature;BMP_pressure;BME280_temperature;BME280_humidity;BME280_pressure;Samples;Min_cycle;Max_cycle;Signal;HPM_P1;HPM_P2
2023/04/25 00:01:21;;;;;;;26.52;4.63;;;6.60;99.90;;;;;;4968088;28;20141;-81
2023/04/25 00:03:47;;;;;;;20.15;4.15;;;6.60;99.90;;;;;;4977862;28;20092;-81
2023/04/25 00:06:13;;;;;;;24.88;4.38;;;6.60;99.90;;;;;;4977227;28;20241;-80
2023/04/25 00:08:39;;;;;;;18.25;3.67;;;6.60;99.90;;;;;;4976709;28;20142;-81
2023/04/25 00:11:05;;;;;;;22.98;5.15;;;6.70;99.90;;;;;;4977660;28;20062;-80
2023/04/25 00:13:31;;;;;;;25.42;4.60;;;6.70;99.90;;;;;;4983251;28;20478;-80
2023/04/25 00:15:57;;;;;;;24.20;4.63;;;6.70;99.90;;;;;;4974439;28;20129;-81
2023/04/25 00:18:23;;;;;;;28.92;4.10;;;6.70;99.90;;;;;;4967976;28;20053;-81
2023/04/25 00:20:49;;;;;;;19.60;3.60;;;6.70;99.90;;;;;;4975493;28;20046;-81
2023/04/25 00:23:18;;;;;;;16.63;4.38;;;6.70;99.90;;;;;;4977979;28;20503;-81
2023/04/25 00:25:48;;;;;;;20.60;4.05;;;6.70;99.90;;;;;;4978175;28;20121;-80
2023/04/25 00:28:14;;;;;;;22.50;4.35;;;6.70;99.90;;;;;;4977117;28;20047;-81
2023/04/25 00:30:41;;;;;;;19.05;3.63;;;6.80;99.90;;;;;;4973425;28;20053;-82
2023/04/25 00:33:07;;;;;;;20.52;3.20;;;6.80;99.90;;;;;;4976480;28;20390;-80
2023/04/25 00:35:33;;;;;;;14.43;3.38;;;6.70;99.90;;;;;;4960284;28;20070;-82
2023/04/25 00:37:59;;;;;;;11.45;2.67;;;6.70;99.90;;;;;;4958716;28;20046;-81
2023/04/25 00:40:25;;;;;;;14.32;2.60;;;6.70;99.90;;;;;;4959633;28;20155;-80
2023/04/25 00:42:52;;;;;;;15.30;2.70;;;6.70;99.90;;;;;;4971217;28;20052;-81
2023/04/25 00:45:19;;;;;;;13.07;3.00;;;6.70;99.90;;;;;;4973210;28;20046;-82
2023/04/25 00:47:45;;;;;;;11.55;2.85;;;6.60;99.90;;;;;;4981888;28;20229;-81
2023/04/25 00:50:12;;;;;;;11.13;2.65;;;6.60;99.90;;;;;;4981090;28;20035;-80
2023/04/25 00:52:40;;;;;;;13.25;2.88;;;6.60;99.90;;;;;;4981343;28;20276;-81
2023/04/25 00:55:07;;;;;;;10.32;2.30;;;6.60;99.90;;;;;;4978194;28;20516;-80
2023/04/25 00:57:33;;;;;;;10.35;2.58;;;6.50;99.90;;;;;;4980895;28;20240;-81
2023/04/25 00:59:59;;;;;;;15.20;3.53;;;6.50;99.90;;;;;;4995794;28;20054;-81
2023/04/25 01:02:26;;;;;;;12.13;3.00;;;6.50;99.90;;;;;;4974442;28;20478;-82
2023/04/25 01:04:52;;;;;;;20.20;3.20;;;6.50;99.90;;;;;;4974406;28;20061;-82
2023/04/25 01:07:18;;;;;;;16.63;3.22;;;6.40;99.90;;;;;;4980941;28;20046;-81
2023/04/25 01:09:44;;;;;;;23.02;3.70;;;6.40;99.90;;;;;;4981026;28;20417;-81
2023/04/25 01:12:10;;;;;;;13.32;2.92;;;6.40;99.90;;;;;;4964078;28;20047;-80
2023/04/25 01:14:35;;;;;;;19.65;3.75;;;6.40;99.90;;;;;;4982448;28;20046;-82
2023/04/25 01:17:01;;;;;;;23.52;4.57;;;6.40;99.90;;;;;;4977309;28;21754;-79
2023/04/25 01:19:27;;;;;;;17.98;3.63;;;6.40;99.90;;;;;;4963702;28;20062;-81
2023/04/25 01:21:52;;;;;;;17.05;3.50;;;6.50;99.90;;;;;;4983498;28;20054;-81
2023/04/25 01:24:18;;;;;;;22.67;3.65;;;6.50;99.90;;;;;;4977489;28;20061;-82
2023/04/25 01:26:49;;;;;;;11.55;2.53;;;6.50;99.90;;;;;;4977893;28;20046;-82
2023/04/25 01:29:16;;;;;;;19.20;2.95;;;6.50;99.90;;;;;;4980896;28;20141;-82
2023/04/25 01:31:44;;;;;;;18.70;3.53;;;6.50;99.90;;;;;;4977347;28;20046;-81
2023/04/25 01:34:10;;;;;;;16.52;3.05;;;6.40;99.90;;;;;;4964146;28;20042;-81
2023/04/25 01:36:35;;;;;;;12.57;2.40;;;6.40;99.90;;;;;;4981071;28;20034;-82
2023/04/25 01:39:01;;;;;;;13.50;2.95;;;6.30;99.90;;;;;;4984160;28;20410;-79
2023/04/25 01:41:27;;;;;;;12.55;2.45;;;6.20;99.90;;;;;;4977226;28;20054;-81
2023/04/25 01:43:53;;;;;;;9.20;2.58;;;6.20;99.90;;;;;;4976671;28;20359;-81
2023/04/25 01:46:19;;;;;;;12.77;2.00;;;6.20;99.90;;;;;;4975696;28;20050;-81
2023/04/25 01:48:45;;;;;;;6.63;1.83;;;6.20;99.90;;;;;;4980284;28;20395;-81
2023/04/25 01:51:11;;;;;;;9.40;2.13;;;6.10;99.90;;;;;;4974433;28;20043;-81
2023/04/25 01:53:37;;;;;;;10.63;2.00;;;6.10;99.90;;;;;;4981434;28;20289;-81
2023/04/25 01:56:04;;;;;;;10.20;2.25;;;6.10;99.90;;;;;;4978860;28;20188;-81
2023/04/25 01:58:29;;;;;;;15.60;3.35;;;6.10;99.90;;;;;;4964119;28;20058;-82
2023/04/25 02:00:55;;;;;;;11.02;2.13;;;6.10;99.90;;;;;;4975614;28;20031;-80
2023/04/25 02:03:20;;;;;;;19.00;2.70;;;6.10;99.90;;;;;;4979838;28;20055;-80
2023/04/25 02:05:46;;;;;;;18.35;2.80;;;6.00;99.90;;;;;;4979105;28;20053;-80
2023/04/25 02:08:12;;;;;;;10.38;2.53;;;6.00;99.90;;;;;;4979651;28;20054;-80
2023/04/25 02:10:37;;;;;;;19.20;3.53;;;5.90;99.90;;;;;;4977800;28;20117;-81
2023/04/25 02:13:05;;;;;;;13.95;1.90;;;5.90;99.90;;;;;;4976873;28;20402;-80
2023/04/25 02:15:30;;;;;;;10.32;1.88;;;5.90;99.90;;;;;;4963176;28;20676;-80
2023/04/25 02:17:56;;;;;;;8.85;2.13;;;5.90;99.90;;;;;;4978125;28;20275;-81
2023/04/25 02:20:23;;;;;;;11.43;1.77;;;5.90;99.90;;;;;;4981246;28;20333;-81
2023/04/25 02:22:49;;;;;;;11.98;2.88;;;5.90;99.90;;;;;;4980053;28;20081;-81
2023/04/25 02:25:19;;;;;;;10.48;2.33;;;5.80;99.90;;;;;;4979506;28;20066;-80
2023/04/25 02:27:46;;;;;;;9.95;2.05;;;5.80;99.90;;;;;;4957429;28;20519;-81
2023/04/25 02:30:12;;;;;;;9.60;1.80;;;5.80;99.90;;;;;;4979246;28;20061;-81
2023/04/25 02:32:39;;;;;;;8.98;2.28;;;5.70;99.90;;;;;;4979076;28;20045;-81
2023/04/25 02:35:06;;;;;;;9.27;1.98;;;5.70;99.90;;;;;;4979436;28;20038;-80
2023/04/25 02:37:35;;;;;;;13.32;2.17;;;5.70;99.90;;;;;;4979901;28;20057;-81
2023/04/25 02:40:01;;;;;;;7.72;1.95;;;5.60;99.90;;;;;;4976323;28;20069;-82
2023/04/25 02:42:27;;;;;;;11.57;2.40;;;5.60;99.90;;;;;;4970654;28;20046;-81
2023/04/25 02:44:53;;;;;;;7.43;2.00;;;5.60;99.90;;;;;;4976862;28;20112;-81
2023/04/25 02:47:18;;;;;;;9.85;1.95;;;5.50;99.90;;;;;;4972969;28;20062;-81
2023/04/25 02:49:45;;;;;;;9.27;2.15;;;5.50;99.90;;;;;;4978584;28;20039;-81
2023/04/25 02:52:10;;;;;;;10.95;2.40;;;5.50;99.90;;;;;;4979584;28;20536;-81
2023/04/25 02:54:36;;;;;;;12.10;2.50;;;5.50;99.90;;;;;;4976856;28;20149;-82
2023/04/25 02:57:02;;;;;;;9.07;2.03;;;5.40;99.90;;;;;;4973843;28;20042;-81
2023/04/25 02:59:28;;;;;;;15.25;2.92;;;5.40;99.90;;;;;;4979114;28;20173;-82
2023/04/25 03:01:54;;;;;;;13.60;2.35;;;5.50;99.90;;;;;;4973433;28;20058;-82
2023/04/25 03:04:20;;;;;;;18.48;2.83;;;5.50;99.90;;;;;;4976878;28;20049;-82
2023/04/25 03:06:46;;;;;;;11.38;2.38;;;5.50;99.90;;;;;;4978434;28;20050;-82
2023/04/25 03:09:12;;;;;;;13.00;2.53;;;5.50;99.90;;;;;;4994153;28;20038;-81
2023/04/25 03:11:39;;;;;;;11.30;2.60;;;5.50;99.90;;;;;;4973910;28;20110;-81
2023/04/25 03:14:04;;;;;;;9.05;2.30;;;5.60;99.90;;;;;;4977982;28;20038;-81
2023/04/25 03:16:30;;;;;;;16.58;2.88;;;5.60;99.90;;;;;;4976565;28;20068;-82
2023/04/25 03:18:56;;;;;;;17.90;2.95;;;5.60;99.90;;;;;;4978600;28;20134;-81
2023/04/25 03:21:22;;;;;;;15.25;3.30;;;5.50;99.90;;;;;;4964850;28;20070;-82
2023/04/25 03:23:48;;;;;;;17.35;3.30;;;5.60;99.90;;;;;;4976173;28;20449;-81
2023/04/25 03:26:14;;;;;;;15.98;3.10;;;5.60;99.90;;;;;;4977150;28;20092;-81
2023/04/25 03:28:40;;;;;;;11.90;2.35;;;5.60;99.90;;;;;;4974681;28;20046;-81
2023/04/25 03:31:06;;;;;;;11.82;2.53;;;5.70;99.90;;;;;;4973591;28;20572;-81
2023/04/25 03:33:31;;;;;;;13.18;2.30;;;5.70;99.90;;;;;;4977714;28;20145;-81
2023/04/25 03:35:57;;;;;;;12.93;2.08;;;5.80;99.90;;;;;;4978277;28;20050;-83
2023/04/25 03:38:23;;;;;;;9.02;1.92;;;5.80;99.90;;;;;;4990167;28;20058;-82
2023/04/25 03:40:50;;;;;;;10.20;1.88;;;5.80;99.90;;;;;;4974921;28;20142;-82
2023/04/25 03:43:16;;;;;;;7.30;2.22;;;5.80;99.90;;;;;;4976490;28;20054;-82
2023/04/25 03:45:42;;;;;;;7.63;1.85;;;5.80;99.90;;;;;;4973846;28;20665;-82
2023/04/25 03:48:07;;;;;;;10.43;1.75;;;5.80;99.90;;;;;;4975447;28;20771;-81
2023/04/25 03:50:33;;;;;;;12.65;2.33;;;5.80;99.90;;;;;;4978591;28;22358;-81
2023/04/25 03:52:59;;;;;;;11.48;2.00;;;5.80;99.90;;;;;;4977140;28;20042;-82
2023/04/25 03:55:24;;;;;;;18.00;4.03;;;5.80;99.90;;;;;;4978112;28;20049;-81
2023/04/25 03:57:50;;;;;;;9.90;2.10;;;5.70;99.90;;;;;;4977044;28;20050;-81
2023/04/25 04:00:16;;;;;;;9.00;2.22;;;5.70;99.90;;;;;;4973762;28;20569;-80
2023/04/25 04:02:41;;;;;;;8.00;2.22;;;5.70;99.90;;;;;;4977434;28;20051;-81
2023/04/25 04:05:07;;;;;;;14.93;2.35;;;5.60;99.90;;;;;;4978402;28;20050;-80
2023/04/25 04:07:33;;;;;;;11.93;2.33;;;5.50;99.90;;;;;;4976890;28;20387;-81
2023/04/25 04:09:59;;;;;;;14.10;3.28;;;5.40;99.90;;;;;;4973908;28;20130;-81
2023/04/25 04:12:25;;;;;;;11.10;2.40;;;5.30;99.90;;;;;;4960569;28;20048;-81
2023/04/25 04:14:50;;;;;;;7.72;1.85;;;5.20;99.90;;;;;;4978990;28;20054;-80
2023/04/25 04:17:16;;;;;;;11.85;2.63;;;5.20;99.90;;;;;;4960893;28;20272;-81
2023/04/25 04:19:41;;;;;;;10.05;2.17;;;5.20;99.90;;;;;;4978436;28;20770;-81
2023/04/25 04:22:07;;;;;;;8.30;1.73;;;5.20;99.90;;;;;;4978592;28;20062;-81
2023/04/25 04:24:33;;;;;;;14.25;2.90;;;5.20;99.90;;;;;;4962122;28;20034;-81
2023/04/25 04:26:58;;;;;;;14.07;2.42;;;5.20;99.90;;;;;;4979413;28;20508;-81
2023/04/25 04:29:24;;;;;;;14.70;2.20;;;5.30;99.90;;;;;;4980092;28;20129;-81
2023/04/25 04:31:52;;;;;;;11.77;2.50;;;5.40;99.90;;;;;;4976177;28;20049;-81
2023/04/25 04:34:18;;;;;;;11.73;2.35;;;5.50;99.90;;;;;;4977521;28;20503;-81
2023/04/25 04:36:46;;;;;;;12.82;1.88;;;5.50;99.90;;;;;;4978132;28;20038;-82
2023/04/25 04:39:12;;;;;;;13.07;3.00;;;5.50;99.90;;;;;;4982223;28;20050;-81
2023/04/25 04:41:38;;;;;;;12.32;2.22;;;5.60;99.90;;;;;;4977297;28;20510;-82
2023/04/25 04:44:06;;;;;;;13.32;3.03;;;5.60;99.90;;;;;;4960073;28;20049;-81
2023/04/25 04:46:37;;;;;;;8.35;1.67;;;5.60;99.90;;;;;;4960518;28;20043;-82
2023/04/25 04:49:06;;;;;;;10.07;2.13;;;5.60;99.90;;;;;;4982743;28;20043;-80
2023/04/25 04:51:31;;;;;;;11.93;2.03;;;5.60;99.90;;;;;;4979971;28;20054;-81
2023/04/25 04:53:58;;;;;;;13.32;2.47;;;5.60;99.90;;;;;;4979499;28;20050;-81
2023/04/25 04:56:25;;;;;;;13.02;2.00;;;5.60;99.90;;;;;;4947347;28;20073;-80
2023/04/25 04:58:52;;;;;;;11.73;2.50;;;5.60;99.90;;;;;;4980075;28;20043;-81
2023/04/25 05:01:18;;;;;;;8.73;1.88;;;5.60;99.90;;;;;;4977676;28;20061;-81
2023/04/25 05:03:43;;;;;;;6.85;1.70;;;5.50;99.90;;;;;;4976729;28;20050;-81
2023/04/25 05:06:09;;;;;;;10.50;2.40;;;5.60;99.90;;;;;;4980609;28;20535;-80
2023/04/25 05:08:36;;;;;;;6.47;1.42;;;5.60;99.90;;;;;;4980411;28;20140;-81
2023/04/25 05:11:02;;;;;;;7.00;1.40;;;5.60;99.90;;;;;;4978912;28;20049;-80
2023/04/25 05:13:27;;;;;;;12.60;2.20;;;5.60;99.90;;;;;;4980724;28;20065;-81
2023/04/25 05:15:53;;;;;;;9.98;1.65;;;5.60;99.90;;;;;;4980166;28;20134;-81
2023/04/25 05:18:18;;;;;;;5.97;2.08;;;5.60;99.90;;;;;;4963654;28;20051;-81
2023/04/25 05:20:44;;;;;;;8.25;1.60;;;5.50;99.90;;;;;;4984315;28;20074;-83
2023/04/25 05:23:10;;;;;;;6.57;2.08;;;5.50;99.90;;;;;;4981153;28;20050;-81
2023/04/25 05:25:35;;;;;;;8.75;1.65;;;5.50;99.90;;;;;;4981412;28;20513;-82
2023/04/25 05:28:01;;;;;;;10.10;2.00;;;5.50;99.90;;;;;;4976484;28;20391;-81
2023/04/25 05:30:26;;;;;;;11.90;1.88;;;5.60;99.90;;;;;;4978740;28;20552;-81
2023/04/25 05:32:52;;;;;;;8.93;1.50;;;5.80;99.90;;;;;;4983148;28;20042;-81
2023/04/25 05:35:18;;;;;;;7.10;1.60;;;5.90;99.90;;;;;;4973267;28;20709;-81
2023/04/25 05:37:43;;;;;;;10.52;1.83;;;6.10;99.90;;;;;;4984729;28;20065;-81
2023/04/25 05:40:10;;;;;;;9.70;1.95;;;6.20;99.90;;;;;;4985661;28;20053;-81
2023/04/25 05:42:35;;;;;;;9.15;1.80;;;6.20;99.90;;;;;;4968596;28;20077;-81
2023/04/25 05:45:01;;;;;;;9.45;2.05;;;6.20;99.90;;;;;;4982694;28;20828;-79
2023/04/25 05:47:26;;;;;;;13.85;2.47;;;6.20;99.90;;;;;;4983162;28;20057;-80
2023/04/25 05:49:52;;;;;;;13.95;2.10;;;6.20;99.90;;;;;;4968088;28;20140;-79
2023/04/25 05:52:18;;;;;;;12.85;2.05;;;6.20;99.90;;;;;;4981099;28;20065;-78
2023/04/25 05:54:44;;;;;;;9.45;2.30;;;6.20;99.90;;;;;;4982321;28;20070;-80
2023/04/25 05:57:22;;;;;;;14.38;2.00;;;6.20;99.90;;;;;;4976893;28;20585;-79
2023/04/25 05:59:48;;;;;;;11.50;2.33;;;6.20;99.90;;;;;;4983852;28;20038;-79
2023/04/25 06:02:13;;;;;;;9.45;1.63;;;6.20;99.90;;;;;;4979471;28;20057;-80
2023/04/25 06:04:39;;;;;;;7.03;1.60;;;6.10;99.90;;;;;;4986170;28;20449;-79
2023/04/25 06:07:04;;;;;;;5.60;1.25;;;6.00;99.90;;;;;;4969054;28;21470;-79
2023/04/25 06:09:30;;;;;;;11.63;1.75;;;5.90;99.90;;;;;;4986766;28;20054;-79
2023/04/25 06:11:56;;;;;;;6.13;1.45;;;5.80;99.90;;;;;;4987315;28;20051;-79
2023/04/25 06:14:21;;;;;;;6.50;1.55;;;5.80;99.90;;;;;;4985690;28;20573;-79
2023/04/25 06:16:47;;;;;;;11.63;1.65;;;5.80;99.90;;;;;;4985289;28;20498;-78
2023/04/25 06:19:12;;;;;;;8.00;1.92;;;5.90;99.90;;;;;;4985268;28;20050;-79
2023/04/25 06:21:38;;;;;;;9.80;1.58;;;6.00;99.90;;;;;;4984313;28;20057;-79
2023/04/25 06:24:04;;;;;;;7.57;1.83;;;6.30;99.90;;;;;;4981603;28;20088;-79
2023/04/25 06:26:29;;;;;;;8.70;2.15;;;6.60;99.90;;;;;;4984553;28;20049;-79
2023/04/25 06:28:55;;;;;;;7.78;1.60;;;6.80;99.90;;;;;;4988039;28;20046;-79
2023/04/25 06:31:21;;;;;;;14.68;1.77;;;7.00;99.90;;;;;;4983316;28;20050;-78
2023/04/25 06:33:48;;;;;;;13.93;2.42;;;7.20;99.90;;;;;;4967963;28;20174;-79
2023/04/25 06:36:13;;;;;;;13.20;2.20;;;7.30;99.90;;;;;;4985721;28;20049;-79
2023/04/25 06:38:39;;;;;;;10.07;2.05;;;7.40;99.90;;;;;;4977613;28;20050;-79
2023/04/25 06:41:05;;;;;;;14.95;2.08;;;7.40;99.90;;;;;;4986158;28;20054;-78
2023/04/25 06:43:33;;;;;;;10.65;2.90;;;7.60;99.90;;;;;;4984701;28;20461;-78
2023/04/25 06:46:00;;;;;;;13.95;2.33;;;7.90;99.90;;;;;;4981755;28;20042;-79
2023/04/25 06:48:26;;;;;;;11.30;1.95;;;7.80;99.90;;;;;;4984728;28;20586;-79
2023/04/25 06:50:54;;;;;;;11.93;2.15;;;7.60;99.90;;;;;;4988029;28;20055;-81
2023/04/25 06:53:19;;;;;;;12.15;2.50;;;7.30;99.90;;;;;;4980407;28;20053;-80
2023/04/25 06:55:45;;;;;;;19.23;2.70;;;7.00;99.90;;;;;;4976883;28;20042;-80
2023/04/25 06:58:11;;;;;;;16.02;2.20;;;6.80;99.90;;;;;;4984653;28;20130;-80
2023/04/25 07:00:36;;;;;;;10.60;2.03;;;6.70;99.90;;;;;;4983205;28;20044;-80
2023/04/25 07:03:02;;;;;;;14.18;2.25;;;6.70;99.90;;;;;;4983368;28;20038;-78
2023/04/25 07:05:27;;;;;;;14.82;2.63;;;6.70;99.90;;;;;;4984782;28;20046;-79
2023/04/25 07:07:53;;;;;;;13.35;2.65;;;6.80;99.90;;;;;;4968298;28;20505;-80
2023/04/25 07:10:19;;;;;;;11.88;2.20;;;6.80;99.90;;;;;;4981983;28;20656;-79
2023/04/25 07:12:44;;;;;;;7.80;1.75;;;6.90;99.90;;;;;;4966413;28;20073;-79
2023/04/25 07:15:11;;;;;;;11.27;2.72;;;7.00;99.90;;;;;;4980946;28;20529;-79
2023/04/25 07:17:37;;;;;;;7.45;1.70;;;7.10;99.90;;;;;;4988358;28;20046;-79
2023/04/25 07:20:04;;;;;;;5.13;1.40;;;7.10;99.90;;;;;;4983653;28;20042;-77
2023/04/25 07:22:29;;;;;;;7.10;1.38;;;7.10;99.90;;;;;;4967681;28;20129;-79
2023/04/25 07:24:55;;;;;;;8.82;1.80;;;7.00;99.90;;;;;;4965875;28;20042;-80
2023/04/25 07:27:21;;;;;;;4.50;1.70;;;7.00;99.90;;;;;;4977365;28;20054;-79
2023/04/25 07:29:46;;;;;;;5.63;1.48;;;6.90;99.90;;;;;;4980895;28;20064;-79
2023/04/25 07:32:13;;;;;;;6.90;1.80;;;7.10;99.90;;;;;;4981870;28;20050;-80
2023/04/25 07:34:39;;;;;;;15.52;2.60;;;7.30;99.90;;;;;;4981637;28;20042;-80
2023/04/25 07:37:05;;;;;;;10.00;2.33;;;7.60;99.90;;;;;;4983680;28;21052;-79
2023/04/25 07:39:31;;;;;;;9.32;1.77;;;8.00;99.90;;;;;;4981533;28;20046;-79
2023/04/25 07:41:58;;;;;;;9.32;1.85;;;8.40;99.90;;;;;;4982137;28;20100;-79
2023/04/25 07:44:24;;;;;;;13.48;2.33;;;8.80;99.90;;;;;;4971714;28;20398;-79
2023/04/25 07:46:50;;;;;;;11.07;2.47;;;9.00;99.90;;;;;;4982150;28;20042;-79
2023/04/25 07:49:15;;;;;;;17.60;2.17;;;8.90;99.90;;;;;;4981902;28;20512;-79
2023/04/25 07:51:43;;;;;;;12.80;1.80;;;8.80;99.90;;;;;;4981415;28;20045;-80
2023/04/25 07:54:09;;;;;;;10.57;1.77;;;8.50;99.90;;;;;;4965337;28;20552;-79
2023/04/25 07:56:35;;;;;;;9.07;1.95;;;8.40;99.90;;;;;;4962178;28;20303;-79
2023/04/25 07:59:01;;;;;;;16.38;3.13;;;8.40;99.90;;;;;;4980901;28;20703;-76
2023/04/25 08:01:26;;;;;;;14.75;2.80;;;8.60;99.90;;;;;;4980597;28;20477;-79
2023/04/25 08:03:53;;;;;;;8.60;2.17;;;8.80;99.90;;;;;;4973829;28;20077;-80
2023/04/25 08:06:18;;;;;;;10.38;2.00;;;9.00;99.90;;;;;;4976294;28;20169;-79
2023/04/25 08:08:45;;;;;;;6.13;1.83;;;8.90;99.90;;;;;;4982165;28;20104;-79
2023/04/25 08:11:10;;;;;;;8.05;2.13;;;8.80;99.90;;;;;;4980557;28;20502;-79
2023/04/25 08:13:36;;;;;;;15.05;2.13;;;8.60;99.90;;;;;;4981463;28;20053;-79
2023/04/25 08:16:02;;;;;;;10.65;1.83;;;8.60;99.90;;;;;;4974444;28;20292;-78
2023/04/25 08:18:28;;;;;;;16.40;2.85;;;8.80;99.90;;;;;;4991696;28;20137;-78
2023/04/25 08:20:53;;;;;;;6.28;1.55;;;9.10;99.90;;;;;;4982379;28;20142;-78
2023/04/25 08:23:19;;;;;;;12.90;2.13;;;9.30;99.90;;;;;;4981878;28;20521;-79
2023/04/25 08:25:44;;;;;;;8.95;2.05;;;9.20;99.90;;;;;;4977695;28;20096;-78
2023/04/25 08:28:10;;;;;;;7.63;2.15;;;9.10;99.90;;;;;;4978386;28;20046;-79
2023/04/25 08:30:36;;;;;;;12.90;2.33;;;9.00;99.90;;;;;;4982276;28;20067;-79
2023/04/25 08:33:02;;;;;;;13.32;2.58;;;9.20;99.90;;;;;;4963025;28;20050;-80
2023/04/25 08:35:32;;;;;;;10.32;2.65;;;9.20;99.90;;;;;;4954010;28;20047;-77
2023/04/25 08:37:58;;;;;;;10.70;2.38;;;9.20;99.90;;;;;;4983902;28;20073;-78
2023/04/25 08:40:29;;;;;;;11.30;1.90;;;9.10;99.90;;;;;;4983784;28;20046;-79
2023/04/25 08:42:57;;;;;;;12.30;2.42;;;9.10;99.90;;;;;;4983210;28;20054;-79
2023/04/25 08:45:24;;;;;;;13.50;2.25;;;9.40;99.90;;;;;;4974704;28;20238;-79
2023/04/25 08:47:52;;;;;;;13.60;3.00;;;9.50;99.90;;;;;;4976159;28;20216;-80
2023/04/25 08:50:22;;;;;;;10.82;2.53;;;9.30;99.90;;;;;;4982003;28;20134;-79
2023/04/25 08:52:52;;;;;;;12.82;2.45;;;9.00;99.90;;;;;;4984413;28;20042;-76
2023/04/25 08:55:20;;;;;;;7.47;1.98;;;8.90;99.90;;;;;;4969243;28;20061;-80
2023/04/25 08:57:46;;;;;;;17.35;2.42;;;9.10;99.90;;;;;;4963242;28;20398;-79
2023/04/25 09:00:12;;;;;;;12.25;2.10;;;9.50;99.90;;;;;;4962402;28;21655;-79
2023/04/25 09:02:39;;;;;;;9.18;1.88;;;9.70;99.90;;;;;;4974354;28;20202;-79
2023/04/25 09:05:06;;;;;;;9.15;1.80;;;10.00;99.90;;;;;;4978214;28;20045;-78
2023/04/25 09:07:32;;;;;;;11.85;2.13;;;10.20;99.90;;;;;;4983242;28;20057;-78
2023/04/25 09:10:01;;;;;;;10.18;2.08;;;10.50;99.90;;;;;;4985195;28;20062;-79
2023/04/25 09:12:28;;;;;;;12.88;2.47;;;10.80;99.90;;;;;;4984379;28;20050;-79
2023/04/25 09:15:10;;;;;;;10.48;2.03;;;10.90;99.90;;;;;;4982464;28;20038;-79
2023/04/25 09:17:40;;;;;;;10.98;1.90;;;10.40;99.90;;;;;;4984882;28;20176;-79
2023/04/25 09:20:13;;;;;;;8.32;2.13;;;9.80;99.90;;;;;;4965622;28;20105;-78
2023/04/25 09:22:39;;;;;;;8.45;2.20;;;9.10;99.90;;;;;;4982126;28;20058;-79
2023/04/25 09:25:11;;;;;;;5.13;1.50;;;8.70;99.90;;;;;;4968973;28;20145;-78
2023/04/25 09:27:50;;;;;;;5.80;1.50;;;8.30;99.90;;;;;;4977732;28;20050;-79
2023/04/25 09:30:16;;;;;;;4.25;1.30;;;8.20;99.90;;;;;;4981727;28;20042;-79
2023/04/25 09:32:43;;;;;;;4.20;1.20;;;8.10;99.90;;;;;;4983988;28;20490;-79
2023/04/25 09:35:10;;;;;;;12.55;1.80;;;8.20;99.90;;;;;;4963560;28;20042;-78
2023/04/25 09:37:35;;;;;;;5.88;1.35;;;8.40;99.90;;;;;;4964763;28;20046;-78
2023/04/25 09:40:06;;;;;;;10.32;1.98;;;8.50;99.90;;;;;;4982339;28;20058;-76
2023/04/25 09:42:34;;;;;;;5.00;1.40;;;8.50;99.90;;;;;;4982933;28;20065;-78
2023/04/25 09:45:02;;;;;;;7.03;1.50;;;8.50;99.90;;;;;;4992933;28;20050;-78
2023/04/25 09:47:28;;;;;;;6.72;1.70;;;8.70;99.90;;;;;;4977189;28;20046;-78
2023/04/25 09:49:58;;;;;;;9.48;1.95;;;8.80;99.90;;;;;;4984036;28;20093;-79
2023/04/25 09:52:25;;;;;;;5.57;1.58;;;8.90;99.90;;;;;;4981360;28;20113;-79
2023/04/25 09:54:51;;;;;;;7.15;1.90;;;9.10;99.90;;;;;;4985619;28;20108;-79
2023/04/25 09:57:22;;;;;;;6.85;1.70;;;9.50;99.90;;;;;;4983406;28;20552;-78
2023/04/25 09:59:53;;;;;;;5.60;1.60;;;9.90;99.90;;;;;;4963086;28;20046;-79
2023/04/25 10:02:21;;;;;;;8.50;2.25;;;10.10;99.90;;;;;;4986091;28;20046;-78
2023/04/25 10:04:54;;;;;;;13.27;2.50;;;10.10;99.90;;;;;;4985697;28;20801;-77
2023/04/25 10:07:23;;;;;;;9.32;1.70;;;10.10;99.90;;;;;;4983453;28;20046;-78
2023/04/25 10:09:51;;;;;;;14.02;2.58;;;10.20;99.90;;;;;;4983557;28;20089;-77
2023/04/25 10:12:18;;;;;;;15.40;2.05;;;10.50;99.90;;;;;;4976892;28;20038;-77
2023/04/25 10:14:44;;;;;;;8.25;2.05;;;10.60;99.90;;;;;;4984410;28;20060;-77
2023/04/25 10:17:13;;;;;;;9.30;1.98;;;10.50;99.90;;;;;;4977188;28;20089;-77
2023/04/25 10:19:39;;;;;;;11.48;2.15;;;10.60;99.90;;;;;;4967841;28;20045;-76
2023/04/25 10:22:14;;;;;;;9.50;1.77;;;10.80;99.90;;;;;;4985857;28;20046;-76
2023/04/25 10:24:41;;;;;;;10.65;1.83;;;10.60;99.90;;;;;;4978791;28;20066;-76
2023/04/25 10:27:08;;;;;;;7.47;1.70;;;10.60;99.90;;;;;;4974505;28;20118;-76
2023/04/25 10:29:35;;;;;;;10.25;1.90;;;10.70;99.90;;;;;;4984063;28;20796;-76
2023/04/25 10:32:00;;;;;;;6.43;1.83;;;10.80;99.90;;;;;;4981225;28;20038;-77
2023/04/25 10:34:40;;;;;;;10.85;1.63;;;11.00;99.90;;;;;;4975869;28;20505;-77
2023/04/25 10:37:09;;;;;;;7.80;1.60;;;11.10;99.90;;;;;;4980441;28;20038;-76
2023/04/25 10:39:34;;;;;;;8.13;2.45;;;11.30;99.90;;;;;;4983818;28;20045;-77
2023/04/25 10:42:02;;;;;;;7.97;1.90;;;11.30;99.90;;;;;;4982417;28;21108;-78
2023/04/25 10:44:31;;;;;;;6.80;1.40;;;10.90;99.90;;;;;;4987844;28;20206;-79
2023/04/25 10:46:58;;;;;;;10.18;1.95;;;10.00;99.90;;;;;;4983575;28;20046;-86
2023/04/25 10:49:35;;;;;;;7.30;1.75;;;9.30;99.90;;;;;;4985040;28;20057;-85
2023/04/25 10:52:26;;;;;;;10.05;1.88;;;8.70;99.90;;;;;;4983652;28;20125;-80
2023/04/25 10:54:53;;;;;;;7.55;2.25;;;8.30;99.90;;;;;;4979496;28;20138;-80
2023/04/25 10:57:39;;;;;;;9.00;1.85;;;8.10;99.90;;;;;;4985576;28;20050;-79
2023/04/25 11:00:15;;;;;;;7.63;1.83;;;8.10;99.90;;;;;;4982308;28;20588;-79
2023/04/25 11:02:42;;;;;;;5.57;1.48;;;8.10;99.90;;;;;;4978610;28;20074;-79
2023/04/25 11:05:10;;;;;;;7.10;1.50;;;8.30;99.90;;;;;;4966101;28;20079;-78
2023/04/25 11:07:48;;;;;;;6.20;1.60;;;8.40;99.90;;;;;;4984022;28;20049;-79
2023/04/25 11:10:14;;;;;;;4.93;1.55;;;8.50;99.90;;;;;;4977677;28;20050;-79
2023/04/25 11:12:40;;;;;;;7.35;1.50;;;8.70;99.90;;;;;;4983423;28;20076;-79
2023/04/25 11:15:07;;;;;;;3.85;1.10;;;8.80;99.90;;;;;;4982757;28;20041;-78
2023/04/25 11:17:33;;;;;;;6.80;1.40;;;9.00;99.90;;;;;;4979169;28;20113;-80
2023/04/25 11:19:59;;;;;;;10.75;1.95;;;9.20;99.90;;;;;;4984811;28;20452;-79
2023/04/25 11:22:27;;;;;;;8.60;1.90;;;9.40;99.90;;;;;;4973997;28;20038;-80
2023/04/25 11:24:53;;;;;;;15.95;2.22;;;9.70;99.90;;;;;;4983163;28;20336;-80
2023/04/25 11:27:19;;;;;;;18.02;2.90;;;9.90;99.90;;;;;;4981349;28;20858;-79
2023/04/25 11:29:47;;;;;;;8.07;2.35;;;10.10;99.90;;;;;;4973317;28;20059;-79
2023/04/25 11:32:15;;;;;;;10.45;2.20;;;10.50;99.90;;;;;;4983278;28;20448;-79
2023/04/25 11:34:44;;;;;;;12.70;2.33;;;10.70;99.90;;;;;;4984545;28;20049;-79
2023/04/25 11:37:12;;;;;;;8.73;1.98;;;10.60;99.90;;;;;;4976479;28;20085;-79
2023/04/25 11:39:37;;;;;;;8.63;1.77;;;10.40;99.90;;;;;;4985990;28;20054;-77
2023/04/25 11:42:05;;;;;;;10.07;2.00;;;10.20;99.90;;;;;;4982642;28;20046;-78
2023/04/25 11:44:31;;;;;;;8.45;2.20;;;10.20;99.90;;;;;;4978182;28;20138;-76
2023/04/25 11:46:57;;;;;;;11.18;2.33;;;10.20;99.90;;;;;;4976402;28;20050;-76
2023/04/25 11:49:24;;;;;;;8.98;2.33;;;10.00;99.90;;;;;;4973729;28;20046;-77
2023/04/25 11:51:50;;;;;;;15.43;2.60;;;10.00;99.90;;;;;;4981573;28;20112;-77
2023/04/25 11:54:16;;;;;;;7.25;1.98;;;10.10;99.90;;;;;;4984894;28;20054;-77
2023/04/25 11:56:45;;;;;;;11.98;2.83;;;10.30;99.90;;;;;;4976726;28;20392;-77
2023/04/25 11:59:11;;;;;;;6.07;1.38;;;10.30;99.90;;;;;;4983133;28;20046;-77
2023/04/25 12:01:38;;;;;;;7.45;1.60;;;10.20;99.90;;;;;;4981102;28;20046;-77
2023/04/25 12:04:34;;;;;;;13.20;2.55;;;10.20;99.90;;;;;;4958937;28;22129;-76
2023/04/25 12:07:01;;;;;;;12.65;2.42;;;10.50;99.90;;;;;;4979365;28;20046;-76
2023/04/25 12:09:32;;;;;;;12.38;1.58;;;10.50;99.90;;;;;;4985571;28;20077;-76
2023/04/25 12:12:02;;;;;;;10.98;1.55;;;10.60;99.90;;;;;;4979526;28;20042;-77
2023/04/25 12:14:32;;;;;;;12.85;3.03;;;10.40;99.90;;;;;;4981786;28;20373;-77
2023/04/25 12:17:01;;;;;;;9.82;1.83;;;10.20;99.90;;;;;;4977442;28;20486;-77
2023/04/25 12:19:33;;;;;;;7.57;1.80;;;10.10;99.90;;;;;;4955265;28;20267;-76
2023/04/25 12:22:00;;;;;;;9.75;1.75;;;10.00;99.90;;;;;;4981344;28;20124;-79
2023/04/25 12:24:27;;;;;;;10.15;1.63;;;10.10;99.90;;;;;;4981536;28;20587;-78
2023/04/25 12:27:04;;;;;;;3.58;1.25;;;10.20;99.90;;;;;;4962885;28;20125;-77
2023/04/25 12:29:31;;;;;;;14.07;2.75;;;10.30;99.90;;;;;;4998057;28;20576;-76
2023/04/25 12:31:58;;;;;;;6.97;1.50;;;10.50;99.90;;;;;;4984176;28;20054;-76
2023/04/25 12:34:23;;;;;;;5.07;1.20;;;10.60;99.90;;;;;;4974560;28;20043;-75
2023/04/25 12:36:50;;;;;;;7.05;1.70;;;10.70;99.90;;;;;;4982802;28;20050;-75
2023/04/25 12:39:24;;;;;;;11.93;1.90;;;10.90;99.90;;;;;;4976388;28;20065;-77
2023/04/25 12:41:56;;;;;;;12.70;2.10;;;11.20;99.90;;;;;;4975583;28;20059;-76
2023/04/25 12:44:22;;;;;;;12.23;2.33;;;10.90;99.90;;;;;;4986383;28;20112;-76
2023/04/25 12:46:48;;;;;;;9.18;1.90;;;10.80;99.90;;;;;;4983014;28;20496;-76